Time;durP1;ratioP1;P1;durP2;ratioP2;P2;SDS_P1;SDS_P2;PMS_P1;PMS_P2;Temp;Humidity;BMP_temperature;BMP_pressure;BME280_temperature;BME280_humidity;BME280_pressure;Samples;Min_cycle;Max_cycle;Signal;HPM_P1;HPM_P2
2022/05/31 00:01:13;;;;;;;5.72;5.18;;;8.60;99.90;;;;;;5042810;27;90310;-38
2022/05/31 00:03:39;;;;;;;5.72;5.03;;;8.60;99.90;;;;;;5042442;27;87689;-40
2022/05/31 00:06:05;;;;;;;5.18;4.68;;;8.60;99.90;;;;;;5041889;27;88366;-43
2022/05/31 00:08:32;;;;;;;6.00;5.28;;;8.60;99.90;;;;;;5042222;27;90174;-37
2022/05/31 00:11:00;;;;;;;5.90;5.07;;;8.70;99.90;;;;;;5041660;27;89719;-39
2022/05/31 00:13:27;;;;;;;6.20;5.60;;;8.70;99.90;;;;;;5042093;27;89319;-40
2022/05/31 00:15:53;;;;;;;5.55;5.03;;;8.70;99.90;;;;;;5041795;27;89228;-46
2022/05/31 00:18:18;;;;;;;5.70;5.20;;;8.70;99.90;;;;;;5042704;27;90152;-38
2022/05/31 00:20:44;;;;;;;6.18;5.65;;;8.80;99.90;;;;;;5041002;27;89721;-37
2022/05/31 00:23:10;;;;;;;6.72;6.03;;;8.80;99.90;;;;;;5042240;27;89115;-39
2022/05/31 00:25:36;;;;;;;5.75;5.28;;;8.80;99.90;;;;;;5041666;27;88108;-40
2022/05/31 00:28:02;;;;;;;5.40;4.57;;;8.80;99.90;;;;;;5042322;27;90539;-38
2022/05/31 00:30:27;;;;;;;5.35;4.85;;;8.90;99.90;;;;;;5041670;27;89559;-42
2022/05/31 00:32:53;;;;;;;6.95;5.32;;;8.80;99.90;;;;;;5040787;27;88418;-44
2022/05/31 00:35:26;;;;;;;5.40;5.00;;;8.80;99.90;;;;;;5042093;27;88851;-37
2022/05/31 00:37:54;;;;;;;5.38;4.88;;;8.80;99.90;;;;;;5040647;27;90394;-39
2022/05/31 00:40:22;;;;;;;5.53;5.03;;;8.90;99.90;;;;;;5041596;27;89439;-42
2022/05/31 00:42:57;;;;;;;6.35;5.75;;;8.90;99.90;;;;;;5042281;27;89692;-47
2022/05/31 00:45:34;;;;;;;6.35;5.75;;;8.90;99.90;;;;;;5041495;27;88575;-39
2022/05/31 00:48:01;;;;;;;6.93;6.23;;;8.80;99.90;;;;;;5041797;27;89078;-38
2022/05/31 00:50:34;;;;;;;5.43;4.93;;;8.80;99.90;;;;;;5041138;27;89728;-42
2022/05/31 00:53:05;;;;;;;6.00;5.40;;;8.80;99.90;;;;;;5052117;22;87781;-32
2022/05/31 00:55:37;;;;;;;5.93;5.38;;;8.80;99.90;;;;;;5000375;28;89045;-35
2022/05/31 00:58:15;;;;;;;5.63;4.82;;;8.90;99.90;;;;;;5001203;28;90350;-33
2022/05/31 01:00:41;;;;;;;5.80;5.20;;;8.80;99.90;;;;;;5000402;28;91393;-35
2022/05/31 01:03:09;;;;;;;5.20;4.65;;;8.80;99.90;;;;;;5000976;28;89439;-34
2022/05/31 01:05:36;;;;;;;5.00;4.60;;;8.90;99.90;;;;;;5000220;28;87718;-35
2022/05/31 01:08:02;;;;;;;5.47;4.97;;;8.90;99.90;;;;;;5001283;28;90459;-34
2022/05/31 01:10:28;;;;;;;5.75;4.65;;;8.90;99.90;;;;;;5000497;28;90010;-33
2022/05/31 01:12:55;;;;;;;7.65;5.47;;;8.90;99.90;;;;;;5000769;28;88702;-34
2022/05/31 01:15:21;;;;;;;8.65;4.85;;;8.80;99.90;;;;;;5000987;28;88378;-35
2022/05/31 01:17:47;;;;;;;4.90;4.50;;;8.80;99.90;;;;;;5000449;28;91173;-35
2022/05/31 01:20:19;;;;;;;6.05;5.53;;;8.70;99.90;;;;;;5000542;28;90138;-36
2022/05/31 01:22:54;;;;;;;5.65;5.15;;;8.70;99.90;;;;;;4999926;28;90888;-33
2022/05/31 01:25:37;;;;;;;4.85;4.45;;;8.60;99.90;;;;;;5001398;28;89655;-32
2022/05/31 01:28:12;;;;;;;7.63;5.55;;;8.60;99.90;;;;;;5000168;28;90758;-33
2022/05/31 01:30:44;;;;;;;5.00;4.53;;;8.70;99.90;;;;;;5000558;28;89664;-33
2022/05/31 01:33:22;;;;;;;5.45;4.95;;;8.60;99.90;;;;;;5000725;28;89986;-36
2022/05/31 01:35:47;;;;;;;5.65;5.15;;;8.70;99.90;;;;;;5000914;28;90345;-32
2022/05/31 01:38:23;;;;;;;4.88;4.30;;;8.70;99.90;;;;;;5000310;28;89975;-34
2022/05/31 01:40:57;;;;;;;7.55;4.63;;;8.70;99.90;;;;;;4999853;28;89772;-35
2022/05/31 01:43:23;;;;;;;4.53;4.10;;;8.70;99.90;;;;;;5000608;28;87719;-33
2022/05/31 01:45:57;;;;;;;5.07;4.57;;;8.80;99.90;;;;;;4999384;28;90092;-33
2022/05/31 01:48:25;;;;;;;5.57;5.07;;;8.80;99.90;;;;;;5000647;28;90069;-34
2022/05/31 01:50:51;;;;;;;4.63;4.22;;;8.70;99.90;;;;;;5000355;28;89431;-34
2022/05/31 01:53:17;;;;;;;5.70;5.15;;;8.80;99.90;;;;;;4981569;28;90347;-34
2022/05/31 01:55:44;;;;;;;4.40;4.10;;;8.70;99.90;;;;;;5000073;28;88472;-37
2022/05/31 01:58:22;;;;;;;9.63;5.82;;;8.70;99.90;;;;;;5000605;28;90265;-33
2022/05/31 02:00:48;;;;;;;5.70;5.10;;;8.70;99.90;;;;;;4999663;28;89989;-35
2022/05/31 02:03:16;;;;;;;6.22;5.50;;;8.70;99.90;;;;;;4985583;28;88667;-35
2022/05/31 02:05:47;;;;;;;5.95;5.38;;;8.70;99.90;;;;;;5004082;28;88782;-37
2022/05/31 02:08:14;;;;;;;9.95;5.53;;;8.60;99.90;;;;;;5003586;28;90112;-34
2022/05/31 02:10:40;;;;;;;6.13;5.53;;;8.60;99.90;;;;;;5003316;28;89696;-34
2022/05/31 02:13:06;;;;;;;5.35;4.85;;;8.70;99.90;;;;;;5001481;28;89450;-36
2022/05/31 02:15:33;;;;;;;5.78;5.32;;;8.60;99.90;;;;;;5003628;28;88468;-35
2022/05/31 02:17:58;;;;;;;5.78;5.18;;;8.70;99.90;;;;;;5003520;28;91111;-34
2022/05/31 02:20:24;;;;;;;5.78;5.28;;;8.70;99.90;;;;;;5003030;28;90023;-34
2022/05/31 02:22:49;;;;;;;5.72;5.20;;;8.60;99.90;;;;;;5003023;28;88405;-37
2022/05/31 02:25:15;;;;;;;10.27;5.85;;;8.70;99.90;;;;;;5003352;28;87706;-33
2022/05/31 02:27:41;;;;;;;6.40;5.80;;;8.60;99.90;;;;;;5002999;28;90186;-36
2022/05/31 02:30:07;;;;;;;5.93;5.00;;;8.50;99.90;;;;;;5003438;28;90787;-36
2022/05/31 02:32:33;;;;;;;8.98;6.63;;;8.50;99.90;;;;;;5003318;28;87957;-37
2022/05/31 02:34:58;;;;;;;6.95;6.25;;;8.50;99.90;;;;;;5002851;28;88303;-33
2022/05/31 02:37:24;;;;;;;6.60;6.00;;;8.50;99.90;;;;;;5002775;28;90026;-33
2022/05/31 02:39:50;;;;;;;6.57;5.85;;;8.50;99.90;;;;;;5002700;28;90052;-36
2022/05/31 02:42:16;;;;;;;6.35;5.75;;;8.50;99.90;;;;;;5002988;28;89201;-35
2022/05/31 02:44:42;;;;;;;7.32;6.63;;;8.50;99.90;;;;;;5002559;28;90109;-38
2022/05/31 02:47:08;;;;;;;7.05;6.47;;;8.50;99.90;;;;;;5003458;28;88819;-33
2022/05/31 02:49:36;;;;;;;6.78;5.65;;;8.50;99.90;;;;;;5002276;28;89772;-35
2022/05/31 02:52:02;;;;;;;7.65;6.45;;;8.40;99.90;;;;;;5002674;28;89783;-36
2022/05/31 02:54:28;;;;;;;7.25;6.70;;;8.50;99.90;;;;;;5003440;28;89912;-35
2022/05/31 02:56:54;;;;;;;7.22;6.57;;;8.40;99.90;;;;;;5001946;28;91505;-34
2022/05/31 02:59:19;;;;;;;11.93;6.13;;;8.50;99.90;;;;;;5003220;28;89626;-32
2022/05/31 03:01:45;;;;;;;7.28;6.68;;;8.50;99.90;;;;;;5002529;28;88071;-34
2022/05/31 03:04:12;;;;;;;7.20;6.60;;;8.50;99.90;;;;;;5002732;28;89646;-33
2022/05/31 03:06:40;;;;;;;7.10;5.37;;;8.50;99.90;;;;;;4984853;28;90291;-36
2022/05/31 03:09:07;;;;;;;6.88;6.22;;;8.50;99.90;;;;;;5003056;28;89774;-33
2022/05/31 03:11:50;;;;;;;7.20;6.50;;;8.50;99.90;;;;;;5002442;28;88386;-35
2022/05/31 03:14:24;;;;;;;7.85;7.15;;;8.50;99.90;;;;;;5002632;28;89066;-33
2022/05/31 03:16:59;;;;;;;7.55;6.82;;;8.40;99.90;;;;;;5002430;28;89294;-32
2022/05/31 03:19:29;;;;;;;6.40;5.82;;;8.40;99.90;;;;;;5002987;28;89402;-37
2022/05/31 03:22:00;;;;;;;6.78;6.10;;;8.40;99.90;;;;;;5002398;28;87597;-34
2022/05/31 03:24:49;;;;;;;7.18;6.68;;;8.40;99.90;;;;;;5002042;28;88065;-33
2022/05/31 03:27:14;;;;;;;7.20;6.15;;;8.40;99.90;;;;;;5002322;28;90110;-33
2022/05/31 03:29:45;;;;;;;7.47;6.78;;;8.40;99.90;;;;;;5002407;28;89418;-34
2022/05/31 03:32:11;;;;;;;7.13;6.53;;;8.40;99.90;;;;;;5002859;28;88732;-35
2022/05/31 03:34:37;;;;;;;10.13;7.07;;;8.40;99.90;;;;;;5001829;28;89809;-36
2022/05/31 03:37:03;;;;;;;7.38;6.65;;;8.40;99.90;;;;;;5001757;28;88914;-34
2022/05/31 03:39:29;;;;;;;6.45;5.85;;;8.40;99.90;;;;;;5002496;28;90806;-33
2022/05/31 03:41:54;;;;;;;7.78;7.07;;;8.40;99.90;;;;;;5001728;28;92194;-33
2022/05/31 03:44:20;;;;;;;7.15;6.45;;;8.40;99.90;;;;;;5002635;28;89081;-34
2022/05/31 03:46:47;;;;;;;9.77;8.25;;;8.40;99.90;;;;;;5001419;28;90296;-35
2022/05/31 03:49:14;;;;;;;10.07;7.22;;;8.40;99.90;;;;;;5001481;28;88760;-33
2022/05/31 03:51:39;;;;;;;9.98;7.95;;;8.50;99.90;;;;;;5001764;28;88039;-35
2022/05/31 03:54:05;;;;;;;8.38;7.75;;;8.50;99.90;;;;;;5002170;28;88011;-33
2022/05/31 03:56:31;;;;;;;7.35;6.65;;;8.50;99.90;;;;;;5001889;28;90384;-33
2022/05/31 03:58:56;;;;;;;7.80;6.97;;;8.50;99.90;;;;;;5001529;28;91227;-35
2022/05/31 04:01:22;;;;;;;8.75;8.00;;;8.50;99.90;;;;;;5001454;28;89096;-35
2022/05/31 04:03:47;;;;;;;9.57;7.32;;;8.50;99.90;;;;;;5001934;28;89155;-32
2022/05/31 04:06:13;;;;;;;7.35;6.65;;;8.60;99.90;;;;;;5001262;28;91075;-33
2022/05/31 04:08:39;;;;;;;7.15;6.55;;;8.50;99.90;;;;;;5001868;28;89868;-34
2022/05/31 04:11:04;;;;;;;11.07;7.47;;;8.50;99.90;;;;;;5001169;28;87518;-36
2022/05/31 04:13:30;;;;;;;7.60;6.30;;;8.60;99.90;;;;;;5001789;28;90042;-34
2022/05/31 04:16:11;;;;;;;7.50;6.90;;;8.60;99.90;;;;;;5001287;28;89893;-32
2022/05/31 04:18:38;;;;;;;7.50;6.80;;;8.70;99.90;;;;;;5001552;28;89618;-35
2022/05/31 04:21:06;;;;;;;7.35;6.70;;;8.70;99.90;;;;;;5001507;28;88182;-37
2022/05/31 04:26:16;;;;;;;8.35;7.35;;;8.70;99.90;;;;;;5001234;28;90441;-36
2022/05/31 04:28:42;;;;;;;8.00;7.30;;;8.80;99.90;;;;;;5001388;28;90105;-34
2022/05/31 04:31:08;;;;;;;8.85;7.95;;;8.80;99.90;;;;;;5001649;28;88820;-34
2022/05/31 04:33:34;;;;;;;8.45;7.47;;;8.80;99.90;;;;;;5001664;28;89718;-32
2022/05/31 04:36:01;;;;;;;8.05;7.38;;;8.80;99.90;;;;;;5000977;28;91413;-33
2022/05/31 04:38:27;;;;;;;8.43;7.03;;;8.80;99.90;;;;;;5001520;28;89850;-36
2022/05/31 04:40:52;;;;;;;7.40;6.80;;;8.90;99.90;;;;;;5001109;28;88282;-34
2022/05/31 04:43:18;;;;;;;8.15;7.35;;;8.90;99.90;;;;;;5001427;28;88083;-32
2022/05/31 04:45:44;;;;;;;7.93;7.25;;;8.90;99.90;;;;;;5001304;28;91135;-35
2022/05/31 04:48:09;;;;;;;7.85;7.15;;;8.90;99.90;;;;;;5000756;28;90158;-33
2022/05/31 04:50:35;;;;;;;10.15;7.55;;;9.00;99.90;;;;;;5001495;28;89278;-35
2022/05/31 04:53:01;;;;;;;7.95;7.25;;;9.10;99.90;;;;;;5000482;28;90293;-34
2022/05/31 04:55:29;;;;;;;8.38;7.28;;;9.00;99.90;;;;;;5001067;28;90521;-37
2022/05/31 04:57:54;;;;;;;8.67;7.53;;;9.10;99.90;;;;;;5000973;28;88753;-36
2022/05/31 05:00:21;;;;;;;10.70;8.30;;;9.10;99.90;;;;;;5000261;28;89111;-35
2022/05/31 05:02:47;;;;;;;9.40;7.50;;;9.10;99.90;;;;;;5000615;28;89546;-37
2022/05/31 05:05:13;;;;;;;9.43;7.97;;;9.20;99.90;;;;;;5000728;28;90050;-35
2022/05/31 05:07:38;;;;;;;12.35;8.73;;;9.20;99.90;;;;;;5000344;28;90267;-37
2022/05/31 05:10:05;;;;;;;9.02;8.10;;;9.20;99.90;;;;;;5000774;28;88551;-34
2022/05/31 05:12:31;;;;;;;8.80;7.90;;;9.20;99.90;;;;;;5000588;28;88393;-34
2022/05/31 05:14:56;;;;;;;9.57;8.60;;;9.20;99.90;;;;;;4999838;28;90113;-34
2022/05/31 05:17:23;;;;;;;11.25;8.95;;;9.20;99.90;;;;;;5000725;28;89531;-35
2022/05/31 05:19:49;;;;;;;9.25;8.18;;;9.20;99.90;;;;;;5000331;28;89492;-33
2022/05/31 05:22:15;;;;;;;10.27;9.20;;;9.30;99.90;;;;;;4999816;28;89201;-34
2022/05/31 05:24:40;;;;;;;12.52;7.90;;;9.30;99.90;;;;;;5000299;28;90356;-35
2022/05/31 05:27:06;;;;;;;11.18;9.30;;;9.30;99.90;;;;;;4999739;28;89739;-33
2022/05/31 05:32:16;;;;;;;10.43;8.90;;;9.30;99.90;;;;;;4998402;28;90347;-35
2022/05/31 05:34:41;;;;;;;11.55;10.55;;;9.40;99.90;;;;;;4999442;28;90327;-32
2022/05/31 05:37:07;;;;;;;10.88;9.88;;;9.40;99.90;;;;;;4996402;28;89848;-33
2022/05/31 05:39:33;;;;;;;9.68;8.68;;;9.50;99.90;;;;;;5000301;28;87550;-34
2022/05/31 05:41:58;;;;;;;11.48;10.27;;;9.50;99.90;;;;;;5000434;28;88248;-34
2022/05/31 05:44:25;;;;;;;11.38;9.13;;;9.60;99.90;;;;;;4999359;28;91022;-36
2022/05/31 05:46:51;;;;;;;8.70;8.07;;;9.60;99.90;;;;;;5000615;28;89466;-33
2022/05/31 05:49:16;;;;;;;12.73;8.93;;;9.70;99.90;;;;;;5000216;28;87537;-34
2022/05/31 05:51:44;;;;;;;12.90;9.65;;;9.80;99.90;;;;;;4999731;28;90537;-35
2022/05/31 05:54:10;;;;;;;8.75;7.63;;;9.80;99.90;;;;;;5000591;28;90522;-35
2022/05/31 05:56:35;;;;;;;9.80;8.93;;;9.90;99.90;;;;;;4999957;28;90071;-37
2022/05/31 05:59:01;;;;;;;11.75;10.68;;;9.90;99.90;;;;;;4998021;28;89914;-33
2022/05/31 06:01:39;;;;;;;15.40;9.27;;;10.00;99.90;;;;;;4997445;28;88361;-33
2022/05/31 06:04:23;;;;;;;10.40;9.40;;;10.10;99.90;;;;;;4997425;28;90458;-35
2022/05/31 06:07:03;;;;;;;10.57;9.55;;;10.20;99.90;;;;;;4997735;28;89608;-35
2022/05/31 06:09:32;;;;;;;9.68;8.75;;;10.30;99.90;;;;;;4998564;28;88485;-38
2022/05/31 06:12:06;;;;;;;9.20;8.30;;;10.40;99.90;;;;;;4998047;28;87980;-32
2022/05/31 06:14:39;;;;;;;12.77;8.30;;;10.40;99.90;;;;;;4998368;28;91904;-33
2022/05/31 06:17:11;;;;;;;9.13;8.27;;;10.40;99.90;;;;;;4997950;28;89318;-35
2022/05/31 06:19:38;;;;;;;9.70;8.75;;;10.50;99.90;;;;;;4997748;28;89195;-35
2022/05/31 06:22:05;;;;;;;9.50;8.30;;;10.60;99.90;;;;;;4997575;28;88344;-34
2022/05/31 06:24:32;;;;;;;9.20;8.30;;;10.60;99.90;;;;;;4997992;28;91042;-33
2022/05/31 06:26:57;;;;;;;9.40;8.18;;;10.70;99.90;;;;;;4997659;28;89863;-34
2022/05/31 06:29:23;;;;;;;10.77;8.18;;;10.80;99.90;;;;;;4998080;28;89015;-34
2022/05/31 06:31:49;;;;;;;8.77;7.93;;;10.90;99.90;;;;;;4996944;28;87741;-34
2022/05/31 06:34:16;;;;;;;9.00;8.13;;;10.90;99.90;;;;;;4997956;28;90318;-35
2022/05/31 06:36:42;;;;;;;8.18;7.40;;;11.00;99.90;;;;;;4997509;28;88807;-34
2022/05/31 06:39:08;;;;;;;9.82;8.77;;;11.00;99.90;;;;;;4978898;28;87583;-37
2022/05/31 06:41:35;;;;;;;8.60;7.90;;;11.10;99.90;;;;;;4997052;28;90219;-39
2022/05/31 06:44:00;;;;;;;9.30;7.75;;;11.20;99.90;;;;;;4997611;28;90098;-35
2022/05/31 06:46:26;;;;;;;14.02;8.10;;;11.30;99.90;;;;;;4997583;28;89739;-33
2022/05/31 06:48:53;;;;;;;7.70;7.07;;;11.40;99.90;;;;;;5000526;28;89300;-35
2022/05/31 06:56:59;;;;;;;7.10;6.55;;;11.80;99.90;;;;;;4998670;28;90650;-36
2022/05/31 06:59:25;;;;;;;8.13;7.32;;;12.10;99.90;;;;;;5001232;28;88862;-34
2022/05/31 07:01:53;;;;;;;7.35;6.75;;;12.40;99.90;;;;;;4999872;28;87577;-36
2022/05/31 07:04:19;;;;;;;11.10;7.95;;;12.50;99.90;;;;;;4982264;28;90336;-36
2022/05/31 07:06:45;;;;;;;7.75;7.13;;;12.80;99.90;;;;;;4999751;28;91410;-35
2022/05/31 07:09:12;;;;;;;7.90;7.07;;;13.10;99.90;;;;;;5000419;28;89820;-35
2022/05/31 07:11:38;;;;;;;10.10;6.33;;;13.00;99.90;;;;;;5001255;28;90210;-35
2022/05/31 07:14:03;;;;;;;7.28;6.50;;;13.30;99.90;;;;;;5000684;28;90329;-36
2022/05/31 07:16:29;;;;;;;8.05;7.35;;;13.80;99.90;;;;;;5000556;28;88381;-37
2022/05/31 07:18:56;;;;;;;6.55;5.95;;;14.00;99.90;;;;;;5000699;28;87580;-34
2022/05/31 07:21:21;;;;;;;8.50;7.03;;;14.40;99.90;;;;;;5000805;28;87620;-35
2022/05/31 07:23:47;;;;;;;7.97;6.38;;;14.50;99.90;;;;;;5000954;28;90279;-33
2022/05/31 07:26:12;;;;;;;7.68;6.93;;;14.70;99.90;;;;;;5000358;28;95327;-36
2022/05/31 07:28:39;;;;;;;6.43;5.82;;;15.00;99.90;;;;;;4999949;28;88260;-33
2022/05/31 07:31:05;;;;;;;6.60;5.90;;;15.20;99.90;;;;;;5000387;28;87658;-38
2022/05/31 07:33:30;;;;;;;8.38;5.80;;;15.40;99.90;;;;;;4999821;28;90235;-36
2022/05/31 07:35:56;;;;;;;5.57;5.07;;;15.40;99.90;;;;;;5000232;28;90063;-34
2022/05/31 07:38:22;;;;;;;6.68;5.38;;;15.80;99.90;;;;;;4999916;28;89003;-36
2022/05/31 07:40:49;;;;;;;7.07;5.75;;;16.30;99.90;;;;;;4999805;28;88522;-35
2022/05/31 07:43:15;;;;;;;6.30;5.72;;;16.50;99.90;;;;;;4981934;28;91558;-33
2022/05/31 07:45:41;;;;;;;6.90;4.38;;;16.80;99.90;;;;;;4999436;28;90572;-36
2022/05/31 07:48:07;;;;;;;5.65;5.15;;;16.90;99.90;;;;;;5000923;28;89109;-34
2022/05/31 07:50:33;;;;;;;6.07;4.75;;;17.20;99.90;;;;;;5001100;28;89780;-35
2022/05/31 07:52:59;;;;;;;9.18;5.45;;;17.20;99.90;;;;;;4999653;28;90521;-35
2022/05/31 07:55:29;;;;;;;6.00;5.25;;;17.30;99.90;;;;;;4999944;28;89628;-34
2022/05/31 08:00:40;;;;;;;5.75;5.05;;;17.30;99.90;;;;;;5002598;28;88444;-35
2022/05/31 08:03:06;;;;;;;4.60;4.25;;;17.20;99.90;;;;;;5000154;28;90102;-32
2022/05/31 08:05:35;;;;;;;5.07;4.47;;;17.20;99.90;;;;;;5000154;28;89543;-34
2022/05/31 08:08:01;;;;;;;4.78;4.28;;;17.20;99.90;;;;;;4999942;28;87641;-36
2022/05/31 08:10:28;;;;;;;4.35;3.95;;;17.40;99.90;;;;;;4999153;28;87637;-36
2022/05/31 08:12:54;;;;;;;5.20;4.43;;;17.40;99.90;;;;;;4999818;28;90437;-38
2022/05/31 08:15:19;;;;;;;6.60;4.03;;;17.40;99.90;;;;;;5000187;28;89360;-34
2022/05/31 08:17:46;;;;;;;5.93;3.67;;;17.20;99.90;;;;;;4998864;28;88345;-33
2022/05/31 08:20:13;;;;;;;4.30;3.88;;;17.40;99.90;;;;;;4999453;28;90050;-33
2022/05/31 08:22:39;;;;;;;3.95;3.63;;;17.70;99.60;;;;;;4999033;28;91900;-33
2022/05/31 08:25:06;;;;;;;5.30;3.28;;;17.90;99.90;;;;;;4999117;28;90569;-33
2022/05/31 08:27:34;;;;;;;5.82;3.03;;;18.40;96.00;;;;;;4999478;28;88706;-35
2022/05/31 08:30:01;;;;;;;3.22;2.92;;;18.20;99.90;;;;;;5000175;28;89521;-36
2022/05/31 08:32:27;;;;;;;5.30;2.92;;;18.70;99.90;;;;;;4999939;28;89115;-36
2022/05/31 08:34:52;;;;;;;3.55;2.35;;;18.70;99.90;;;;;;4998301;28;89148;-37
2022/05/31 08:37:18;;;;;;;3.47;2.80;;;18.70;77.50;;;;;;5000238;28;88428;-34
2022/05/31 08:39:43;;;;;;;4.50;2.50;;;18.30;82.30;;;;;;4998614;28;89527;-35
2022/05/31 08:42:14;;;;;;;4.10;2.97;;;18.70;78.10;;;;;;4998973;28;88362;-37
2022/05/31 08:45:03;;;;;;;4.13;2.38;;;18.90;70.10;;;;;;4998305;28;89984;-34
2022/05/31 08:47:45;;;;;;;5.20;3.42;;;18.90;70.10;;;;;;4998823;28;88476;-38
2022/05/31 08:53:13;;;;;;;5.35;3.13;;;18.10;65.00;;;;;;4998511;28;90147;-35
2022/05/31 08:58:44;;;;;;;7.35;3.38;;;18.10;65.40;;;;;;4998209;28;89181;-34
2022/05/31 09:01:13;;;;;;;6.90;2.90;;;18.20;70.70;;;;;;4999009;28;90216;-34
2022/05/31 09:04:16;;;;;;;3.70;3.40;;;18.60;71.60;;;;;;4999834;28;90398;-34
2022/05/31 09:07:09;;;;;;;7.78;5.05;;;18.80;64.80;;;;;;4969803;28;90986;-33
2022/05/31 09:09:56;;;;;;;3.47;2.90;;;19.20;63.70;;;;;;4998667;28;88068;-36
2022/05/31 09:12:49;;;;;;;9.13;4.38;;;19.20;64.50;;;;;;4998687;28;88994;-35
2022/05/31 09:15:36;;;;;;;4.97;4.13;;;19.30;68.70;;;;;;4991181;28;90077;-35
2022/05/31 09:18:26;;;;;;;6.18;3.55;;;19.40;65.20;;;;;;4998194;28;89234;-34
2022/05/31 09:20:56;;;;;;;5.47;3.63;;;19.10;61.60;;;;;;4997854;28;87846;-34
2022/05/31 09:23:33;;;;;;;4.38;3.25;;;19.30;65.30;;;;;;4998819;28;87898;-35
2022/05/31 09:26:08;;;;;;;4.03;3.33;;;19.40;59.30;;;;;;4998359;28;89721;-36
2022/05/31 09:28:48;;;;;;;3.55;3.25;;;19.00;60.80;;;;;;4998158;28;90261;-35
2022/05/31 09:31:34;;;;;;;3.65;3.08;;;19.00;63.10;;;;;;4999059;28;89610;-35
2022/05/31 09:34:12;;;;;;;4.95;3.92;;;18.40;63.50;;;;;;4985227;28;89791;-35
2022/05/31 09:36:49;;;;;;;5.50;4.40;;;18.00;62.70;;;;;;4997512;28;90111;-35
2022/05/31 09:39:28;;;;;;;4.85;3.53;;;17.50;65.40;;;;;;4997816;28;89603;-34
2022/05/31 09:42:20;;;;;;;6.35;3.17;;;17.50;67.30;;;;;;4997670;28;88990;-36
2022/05/31 09:44:50;;;;;;;3.33;3.03;;;17.50;65.40;;;;;;4998625;28;88410;-34
2022/05/31 09:47:24;;;;;;;5.22;3.85;;;17.40;66.30;;;;;;4998368;28;90341;-35
2022/05/31 09:49:51;;;;;;;3.03;2.83;;;17.60;75.20;;;;;;4998544;28;89591;-38
2022/05/31 09:52:32;;;;;;;5.55;3.35;;;17.70;69.40;;;;;;4997974;28;89915;-35
2022/05/31 09:58:22;;;;;;;5.10;4.07;;;17.20;58.00;;;;;;4998053;28;91478;-33
2022/05/31 10:01:00;;;;;;;4.28;3.88;;;17.10;62.80;;;;;;4997331;28;89846;-35
2022/05/31 10:03:37;;;;;;;3.60;3.30;;;17.40;60.60;;;;;;4998010;28;89404;-39
2022/05/31 10:06:28;;;;;;;4.20;3.80;;;17.30;64.30;;;;;;4997872;28;89752;-38
2022/05/31 10:08:55;;;;;;;3.47;2.92;;;17.80;62.70;;;;;;4997543;28;90605;-35
2022/05/31 10:11:29;;;;;;;3.72;3.10;;;17.70;62.00;;;;;;4997822;28;89595;-36
2022/05/31 10:13:58;;;;;;;4.95;3.35;;;17.70;60.20;;;;;;4997932;28;87747;-34
2022/05/31 10:16:35;;;;;;;3.28;3.00;;;17.60;62.50;;;;;;4998124;28;88334;-35
2022/05/31 10:19:20;;;;;;;5.93;3.50;;;17.40;62.70;;;;;;4997953;28;89316;-37
2022/05/31 10:21:46;;;;;;;6.63;4.35;;;17.40;61.90;;;;;;4997613;28;90586;-35
2022/05/31 10:24:20;;;;;;;4.53;4.00;;;17.30;63.70;;;;;;5001537;28;87795;-33
2022/05/31 10:27:05;;;;;;;4.03;3.70;;;17.30;61.90;;;;;;5001422;28;88387;-34
2022/05/31 10:29:40;;;;;;;5.57;3.78;;;17.10;62.60;;;;;;5001471;28;88728;-34
2022/05/31 10:32:43;;;;;;;5.50;3.63;;;17.10;62.40;;;;;;5000644;28;88482;-33
2022/05/31 10:35:17;;;;;;;6.07;3.70;;;17.30;61.20;;;;;;4983055;28;88573;-35
2022/05/31 10:37:55;;;;;;;4.63;3.40;;;17.50;61.10;;;;;;5000993;28;88913;-37
2022/05/31 10:40:46;;;;;;;5.50;4.28;;;17.70;62.00;;;;;;5000770;28;89900;-35
2022/05/31 10:43:26;;;;;;;9.80;4.45;;;17.60;58.70;;;;;;4989478;28;89311;-37
2022/05/31 10:45:54;;;;;;;8.25;4.45;;;17.40;58.50;;;;;;5001105;28;88787;-34
2022/05/31 10:48:19;;;;;;;;;;;17.20;58.60;;;;;;5001360;28;88812;-34
2022/05/31 10:51:05;;;;;;;4.75;3.95;;;17.30;59.90;;;;;;5002420;28;89695;-36
2022/05/31 10:53:50;;;;;;;3.60;3.30;;;17.30;57.90;;;;;;5000271;28;89194;-34
2022/05/31 10:56:25;;;;;;;13.57;3.83;;;17.40;65.90;;;;;;5000429;28;88808;-37
2022/05/31 10:58:58;;;;;;;5.35;3.50;;;17.30;61.20;;;;;;5000798;28;89425;-36
2022/05/31 11:01:36;;;;;;;4.65;4.25;;;17.40;60.90;;;;;;5000328;28;90330;-34
2022/05/31 11:04:29;;;;;;;6.63;3.72;;;17.40;57.90;;;;;;5000958;28;89737;-37
2022/05/31 11:07:31;;;;;;;9.90;4.78;;;17.50;58.40;;;;;;5000478;28;88870;-34
2022/05/31 11:13:29;;;;;;;5.55;3.85;;;17.40;58.10;;;;;;5002136;28;90871;-35
2022/05/31 11:16:09;;;;;;;6.78;4.07;;;17.50;59.30;;;;;;4993677;28;90598;-36
2022/05/31 11:18:41;;;;;;;6.97;3.63;;;17.10;58.90;;;;;;4995952;28;88783;-35
2022/05/31 11:21:31;;;;;;;6.28;4.22;;;17.00;60.50;;;;;;4996752;28;89893;-34
2022/05/31 11:24:06;;;;;;;4.38;4.03;;;17.00;60.40;;;;;;4999223;28;90296;-37
2022/05/31 11:26:47;;;;;;;4.13;3.42;;;17.10;58.30;;;;;;4999891;28;88254;-35
2022/05/31 11:29:57;;;;;;;10.68;4.22;;;17.00;57.80;;;;;;5000364;28;87679;-36
2022/05/31 11:32:52;;;;;;;15.95;4.63;;;17.00;59.50;;;;;;4992880;28;87873;-35
2022/05/31 11:35:34;;;;;;;5.32;4.10;;;17.00;59.30;;;;;;4999591;28;90773;-34
2022/05/31 11:38:12;;;;;;;4.18;3.88;;;17.10;56.90;;;;;;5000508;28;88826;-33
2022/05/31 11:40:48;;;;;;;4.45;4.05;;;17.10;58.10;;;;;;4999387;28;89143;-38
2022/05/31 11:44:05;;;;;;;3.72;3.42;;;17.00;59.50;;;;;;5001038;28;89114;-32
2022/05/31 11:46:37;;;;;;;5.28;4.78;;;17.10;57.60;;;;;;4981535;28;90176;-37
2022/05/31 11:49:06;;;;;;;4.75;4.28;;;17.20;57.50;;;;;;5000623;28;89905;-36
2022/05/31 11:51:57;;;;;;;12.23;5.32;;;17.20;58.90;;;;;;5000381;28;88110;-34
2022/05/31 11:54:38;;;;;;;5.07;4.50;;;17.40;58.50;;;;;;4998288;28;88845;-34
2022/05/31 11:57:47;;;;;;;5.95;3.72;;;17.40;58.20;;;;;;4999976;28;91794;-37
2022/05/31 12:00:14;;;;;;;7.05;4.18;;;17.70;58.50;;;;;;5000525;28;89375;-37
2022/05/31 12:03:28;;;;;;;8.18;5.38;;;17.70;59.40;;;;;;4999848;28;89387;-35
2022/05/31 12:06:15;;;;;;;126.45;21.25;;;17.90;59.30;;;;;;5000140;28;89802;-33
2022/05/31 12:08:51;;;;;;;5.60;4.78;;;18.10;58.80;;;;;;4998582;28;90259;-38
2022/05/31 12:11:40;;;;;;;9.15;4.35;;;18.10;58.80;;;;;;5000019;28;89900;-35
2022/05/31 12:14:11;;;;;;;7.30;4.55;;;18.10;57.90;;;;;;4987653;28;88041;-35
2022/05/31 12:16:38;;;;;;;13.35;5.40;;;17.90;57.90;;;;;;4999577;28;88979;-36
2022/05/31 12:19:31;;;;;;;7.60;4.50;;;17.80;57.80;;;;;;4999759;28;90421;-35
2022/05/31 12:22:24;;;;;;;5.15;3.80;;;17.60;55.60;;;;;;4998563;28;90232;-35
2022/05/31 12:25:20;;;;;;;6.10;4.75;;;17.50;58.30;;;;;;4999746;28;88590;-36
2022/05/31 12:27:56;;;;;;;10.73;4.75;;;17.70;56.20;;;;;;4995124;28;89029;-36
2022/05/31 12:30:38;;;;;;;8.88;4.65;;;17.60;53.50;;;;;;4999450;28;88929;-36
2022/05/31 12:33:46;;;;;;;4.60;4.20;;;17.40;55.40;;;;;;4999198;28;88695;-32
2022/05/31 12:36:18;;;;;;;5.55;4.25;;;17.40;53.00;;;;;;4999453;28;87504;-35
2022/05/31 12:39:05;;;;;;;6.40;5.05;;;17.40;55.50;;;;;;4999900;28;88659;-35
2022/05/31 12:41:42;;;;;;;6.20;4.32;;;17.30;55.80;;;;;;4999633;28;89171;-34
2022/05/31 12:44:29;;;;;;;5.70;3.72;;;17.10;55.80;;;;;;4999617;28;90354;-34
2022/05/31 12:47:08;;;;;;;5.00;4.33;;;17.20;58.10;;;;;;4998109;28;89241;-35
2022/05/31 12:49:36;;;;;;;5.40;4.10;;;17.30;57.30;;;;;;4999201;28;89320;-38
2022/05/31 12:54:53;;;;;;;4.47;3.60;;;17.50;54.90;;;;;;4974984;28;90205;-36
2022/05/31 13:00:41;;;;;;;5.00;4.47;;;17.50;55.30;;;;;;4956326;28;88870;-35
2022/05/31 13:03:32;;;;;;;6.53;5.00;;;17.50;55.50;;;;;;4979145;28;90228;-35
2022/05/31 13:06:09;;;;;;;5.32;4.65;;;17.50;54.70;;;;;;4979011;28;89549;-33
2022/05/31 13:08:51;;;;;;;5.90;5.32;;;17.50;57.70;;;;;;4978617;28;89026;-37
2022/05/31 13:19:41;;;;;;;5.90;4.95;;;17.50;56.70;;;;;;4978616;28;88928;-38
2022/05/31 13:22:10;;;;;;;6.88;4.72;;;17.30;57.50;;;;;;4978542;28;89321;-33
2022/05/31 13:24:43;;;;;;;4.75;4.28;;;17.30;58.10;;;;;;4977768;28;89891;-35
2022/05/31 13:27:10;;;;;;;5.60;4.90;;;17.40;61.00;;;;;;4978707;28;89903;-34
2022/05/31 13:29:36;;;;;;;10.82;4.53;;;17.30;60.60;;;;;;4978539;28;88923;-35
2022/05/31 13:32:02;;;;;;;6.40;5.40;;;17.20;61.30;;;;;;4978678;28;87707;-37
2022/05/31 13:34:36;;;;;;;26.52;7.70;;;17.20;61.30;;;;;;4978841;28;90261;-36
2022/05/31 13:37:11;;;;;;;8.23;5.20;;;17.10;59.50;;;;;;4978581;28;90670;-36
2022/05/31 13:39:42;;;;;;;6.65;4.90;;;17.20;60.20;;;;;;4978536;28;89456;-33
2022/05/31 13:42:17;;;;;;;9.82;4.95;;;17.20;61.80;;;;;;4978634;28;89253;-33
2022/05/31 13:44:42;;;;;;;5.93;4.82;;;17.20;63.80;;;;;;4978150;28;90855;-34
2022/05/31 13:47:11;;;;;;;7.28;5.75;;;17.20;61.60;;;;;;4978932;28;89872;-37
2022/05/31 13:49:40;;;;;;;6.07;5.45;;;17.10;60.10;;;;;;4978690;28;87540;-34
2022/05/31 13:52:25;;;;;;;10.35;5.95;;;17.10;60.80;;;;;;4978568;28;89985;-32
2022/05/31 13:54:54;;;;;;;4.65;4.25;;;17.10;60.40;;;;;;4960192;28;90645;-35